Time;durP1;ratioP1;P1;durP2;ratioP2;P2;SDS_P1;SDS_P2;PMS_P1;PMS_P2;Temp;Humidity;BMP_temperature;BMP_pressure;BME280_temperature;BME280_humidity;BME280_pressure;Samples;Min_cycle;Max_cycle;Signal;HPM_P1;HPM_P2
2022/04/12 00:00:25;;;;;;;;;;;;;;;21.55;24.88;98102.91;4976145;28;923;-73
2022/04/12 00:02:51;;;;;;;;;;;;;;;21.24;25.28;98104.41;4976253;28;949;-73
2022/04/12 00:05:16;;;;;;;;;;;;;;;21.00;25.60;98100.94;4975853;28;1985;-73
2022/04/12 00:07:43;;;;;;;;;;;;;;;21.00;25.80;98095.28;4942945;29;1768;-73
2022/04/12 00:10:09;;;;;;;;;;;;;;;21.08;25.82;98096.69;4956587;28;1191;-73
2022/04/12 00:12:35;;;;;;;;;;;;;;;20.85;26.12;98088.34;4956678;28;1026;-73
2022/04/12 00:15:01;;;;;;;;;;;;;;;21.03;25.76;98088.72;4956599;28;979;-72
2022/04/12 00:20:10;;;;;;;;;;;;;;;21.48;25.00;98093.75;4956603;28;1066;-73
2022/04/12 00:22:36;;;;;;;;;;;;;;;21.54;25.31;98089.16;4954776;28;2361;-73
2022/04/12 00:25:02;;;;;;;;;;;;;;;21.63;24.79;98091.38;4956272;28;1979;-73
2022/04/12 00:27:28;;;;;;;;;;;;;;;21.18;25.49;98087.16;4975791;28;2136;-73
2022/04/12 00:29:54;;;;;;;;;;;;;;;20.93;25.94;98084.09;4975597;28;996;-73
2022/04/12 00:32:19;;;;;;;;;;;;;;;21.09;25.60;98081.34;4975634;28;1184;-73
2022/04/12 00:34:45;;;;;;;;;;;;;;;21.24;25.48;98087.44;4975244;28;1358;-72
2022/04/12 00:37:10;;;;;;;;;;;;;;;21.85;24.54;98081.88;4986562;28;1819;-72
2022/04/12 00:39:37;;;;;;;;;;;;;;;21.75;24.70;98082.94;4994896;28;1010;-73
2022/04/12 00:42:03;;;;;;;;;;;;;;;21.25;25.45;98084.19;4994703;28;1018;-73
2022/04/12 00:44:29;;;;;;;;;;;;;;;21.12;25.60;98091.75;4993801;28;1902;-73
2022/04/12 00:46:54;;;;;;;;;;;;;;;21.09;25.77;98087.00;4985152;28;1811;-73
2022/04/12 00:49:20;;;;;;;;;;;;;;;21.46;25.39;98087.75;4994271;28;939;-73
2022/04/12 00:51:45;;;;;;;;;;;;;;;21.72;24.91;98089.50;4996730;28;1137;-73
2022/04/12 00:54:10;;;;;;;;;;;;;;;21.38;25.23;98080.66;4997054;28;924;-73
2022/04/12 00:56:36;;;;;;;;;;;;;;;21.05;25.37;98089.09;4994113;28;2013;-73
2022/04/12 00:59:03;;;;;;;;;;;;;;;20.81;26.00;98089.22;4994969;28;1752;-73
2022/04/12 01:01:29;;;;;;;;;;;;;;;21.36;25.25;98088.81;4993916;28;1732;-73
2022/04/12 01:03:54;;;;;;;;;;;;;;;21.62;25.04;98096.25;4994563;28;889;-73
2022/04/12 01:06:20;;;;;;;;;;;;;;;21.49;24.84;98086.84;4993733;28;2035;-73
2022/04/12 01:08:45;;;;;;;;;;;;;;;21.30;25.16;98086.50;4994572;28;973;-73
2022/04/12 01:11:12;;;;;;;;;;;;;;;21.19;24.99;98083.13;4994922;28;922;-73
2022/04/12 01:13:37;;;;;;;;;;;;;;;21.08;25.40;98080.50;4994315;28;1080;-73
2022/04/12 01:16:07;;;;;;;;;;;;;;;21.21;25.27;98086.28;4994095;28;1944;-73
2022/04/12 01:18:32;;;;;;;;;;;;;;;20.98;25.83;98086.41;4994439;28;990;-73
2022/04/12 01:20:58;;;;;;;;;;;;;;;20.95;25.82;98088.09;4994283;28;1194;-73
2022/04/12 01:23:27;;;;;;;;;;;;;;;21.00;25.69;98083.97;4994413;28;1008;-73
2022/04/12 01:25:53;;;;;;;;;;;;;;;21.00;25.68;98090.41;4993930;28;1922;-73
2022/04/12 01:28:18;;;;;;;;;;;;;;;21.01;25.81;98079.88;4944018;28;974;-73
2022/04/12 01:30:43;;;;;;;;;;;;;;;20.91;25.79;98093.03;4936503;29;1070;-72
2022/04/12 01:33:09;;;;;;;;;;;;;;;20.94;25.83;98088.56;4966499;28;976;-73
2022/04/12 01:35:34;;;;;;;;;;;;;;;20.92;25.97;98099.50;4974615;28;942;-72
2022/04/12 01:38:01;;;;;;;;;;;;;;;20.94;25.79;98102.69;4991754;28;1757;-72
2022/04/12 01:40:26;;;;;;;;;;;;;;;20.86;26.07;98104.06;4994085;28;949;-72
2022/04/12 01:42:52;;;;;;;;;;;;;;;21.19;25.46;98097.25;4993933;28;970;-72
2022/04/12 01:45:18;;;;;;;;;;;;;;;21.53;24.59;98104.56;4993834;28;1914;-73
2022/04/12 01:47:44;;;;;;;;;;;;;;;21.62;24.93;98106.78;4993876;28;1623;-72
2022/04/12 01:50:09;;;;;;;;;;;;;;;21.50;24.83;98100.59;4993865;28;1181;-73
2022/04/12 01:52:35;;;;;;;;;;;;;;;21.18;25.35;98103.34;4961241;28;1034;-73
2022/04/12 01:55:02;;;;;;;;;;;;;;;20.99;25.70;98107.84;4993740;28;1000;-73
2022/04/12 01:57:28;;;;;;;;;;;;;;;20.93;25.89;98101.06;4993085;28;1752;-73
2022/04/12 01:59:53;;;;;;;;;;;;;;;20.88;25.81;98110.06;5010046;28;2354;-72
2022/04/12 02:02:18;;;;;;;;;;;;;;;21.00;25.56;98103.75;5015352;28;1624;-72
2022/04/12 02:04:44;;;;;;;;;;;;;;;20.94;25.69;98103.47;5015296;28;1918;-73
2022/04/12 02:07:09;;;;;;;;;;;;;;;20.71;25.92;98095.88;5015830;28;1148;-73
2022/04/12 02:09:35;;;;;;;;;;;;;;;20.78;26.13;98100.63;5015304;28;1241;-73
2022/04/12 02:12:00;;;;;;;;;;;;;;;21.04;25.82;98102.44;5015661;28;905;-73
2022/04/12 02:14:26;;;;;;;;;;;;;;;21.43;25.22;98106.41;5015128;28;1981;-73
2022/04/12 02:16:51;;;;;;;;;;;;;;;21.57;24.85;98105.28;5015678;28;1704;-73
2022/04/12 02:19:17;;;;;;;;;;;;;;;21.36;25.07;98105.78;5015656;28;1083;-73
2022/04/12 02:21:42;;;;;;;;;;;;;;;21.07;25.51;98100.75;5015979;28;886;-73
2022/04/12 02:24:08;;;;;;;;;;;;;;;21.06;25.73;98107.66;5015280;28;2198;-73
2022/04/12 02:26:34;;;;;;;;;;;;;;;21.08;25.78;98108.81;5015382;28;1898;-72
2022/04/12 02:28:59;;;;;;;;;;;;;;;21.51;24.77;98107.03;5015189;28;915;-73
2022/04/12 02:31:24;;;;;;;;;;;;;;;21.79;24.63;98106.31;5015434;28;900;-73
2022/04/12 02:33:50;;;;;;;;;;;;;;;21.42;25.02;98107.66;5015021;28;2002;-73
2022/04/12 02:36:15;;;;;;;;;;;;;;;21.13;25.49;98104.66;5015415;28;923;-73
2022/04/12 02:38:41;;;;;;;;;;;;;;;21.14;25.12;98099.78;5015553;28;943;-73
2022/04/12 02:41:06;;;;;;;;;;;;;;;21.13;25.30;98110.31;5015019;28;914;-73
2022/04/12 02:43:32;;;;;;;;;;;;;;;21.44;25.05;98101.53;5014979;28;1733;-73
2022/04/12 02:45:58;;;;;;;;;;;;;;;21.55;24.81;98099.25;5015279;28;1975;-73
2022/04/12 02:48:24;;;;;;;;;;;;;;;21.72;24.54;98105.72;5015500;28;1012;-73
2022/04/12 02:50:49;;;;;;;;;;;;;;;21.37;25.04;98107.38;5015550;28;1161;-73
2022/04/12 02:53:15;;;;;;;;;;;;;;;20.99;25.55;98110.66;5014920;28;1732;-73
2022/04/12 02:55:40;;;;;;;;;;;;;;;20.92;25.54;98105.16;5015205;28;1969;-73
2022/04/12 02:58:06;;;;;;;;;;;;;;;21.24;25.50;98110.88;5014977;28;1989;-72
2022/04/12 03:00:31;;;;;;;;;;;;;;;21.57;24.80;98111.72;5015484;28;928;-73
2022/04/12 03:02:56;;;;;;;;;;;;;;;21.65;24.76;98101.00;5015133;28;1754;-73
2022/04/12 03:05:22;;;;;;;;;;;;;;;21.30;25.09;98108.34;5014671;28;1965;-73
2022/04/12 03:07:47;;;;;;;;;;;;;;;21.17;25.23;98108.22;5016808;28;1024;-73
2022/04/12 03:10:13;;;;;;;;;;;;;;;21.10;25.51;98116.88;5018872;28;1071;-73
2022/04/12 03:12:38;;;;;;;;;;;;;;;21.55;24.90;98110.56;5018858;28;928;-72
2022/04/12 03:15:06;;;;;;;;;;;;;;;21.69;24.48;98113.03;5017967;28;1732;-72
2022/04/12 03:17:31;;;;;;;;;;;;;;;21.45;24.72;98115.28;5018865;28;970;-73
2022/04/12 03:19:56;;;;;;;;;;;;;;;21.16;25.42;98115.09;5018329;28;873;-73
2022/04/12 03:22:22;;;;;;;;;;;;;;;21.03;25.35;98122.66;5018538;28;1126;-73
2022/04/12 03:24:47;;;;;;;;;;;;;;;21.01;25.49;98114.63;5018358;28;1906;-73
2022/04/12 03:27:13;;;;;;;;;;;;;;;21.38;24.95;98121.09;4967405;28;978;-72
2022/04/12 03:29:38;;;;;;;;;;;;;;;21.65;24.57;98123.66;5018364;28;922;-72
2022/04/12 03:32:04;;;;;;;;;;;;;;;21.43;24.83;98126.22;5018383;28;993;-73
2022/04/12 03:34:29;;;;;;;;;;;;;;;21.27;24.97;98121.31;5018080;28;2048;-73
2022/04/12 03:36:55;;;;;;;;;;;;;;;21.10;25.52;98128.19;5018517;28;940;-73
2022/04/12 03:39:21;;;;;;;;;;;;;;;21.37;25.23;98136.47;5018264;28;971;-73
2022/04/12 03:41:47;;;;;;;;;;;;;;;21.77;24.44;98131.47;5018024;28;1013;-72
2022/04/12 03:44:13;;;;;;;;;;;;;;;21.62;24.55;98141.56;5018388;28;1682;-73
2022/04/12 03:46:38;;;;;;;;;;;;;;;21.22;24.87;98141.63;4995715;28;1985;-73
2022/04/12 03:49:03;;;;;;;;;;;;;;;21.06;25.34;98135.94;4995737;28;1588;-73
2022/04/12 03:51:29;;;;;;;;;;;;;;;20.98;25.53;98140.16;4995599;28;1104;-73
2022/04/12 03:53:55;;;;;;;;;;;;;;;20.94;25.82;98142.28;4995598;28;2023;-72
2022/04/12 03:56:20;;;;;;;;;;;;;;;20.99;25.77;98142.56;4995956;28;1018;-73
2022/04/12 03:58:45;;;;;;;;;;;;;;;20.93;25.70;98140.69;4995842;28;1046;-73
2022/04/12 04:01:11;;;;;;;;;;;;;;;20.93;25.73;98146.34;4995838;28;993;-73
2022/04/12 04:03:36;;;;;;;;;;;;;;;20.98;25.48;98149.44;4995397;28;1760;-72
2022/04/12 04:06:03;;;;;;;;;;;;;;;20.96;25.78;98145.47;4995899;28;1992;-72
2022/04/12 04:08:28;;;;;;;;;;;;;;;20.87;25.96;98148.09;4995168;28;1755;-73
2022/04/12 04:10:54;;;;;;;;;;;;;;;20.95;25.79;98149.53;4995300;28;1013;-73
2022/04/12 04:13:19;;;;;;;;;;;;;;;21.59;24.92;98154.53;4995595;28;966;-73
2022/04/12 04:15:45;;;;;;;;;;;;;;;21.57;24.78;98157.03;4995373;28;1061;-73
2022/04/12 04:18:11;;;;;;;;;;;;;;;21.43;24.76;98156.56;4977858;28;966;-73
2022/04/12 04:20:37;;;;;;;;;;;;;;;21.11;25.54;98157.28;5017448;28;1111;-73
2022/04/12 04:23:02;;;;;;;;;;;;;;;21.03;25.63;98165.09;5017375;28;857;-74
2022/04/12 04:25:28;;;;;;;;;;;;;;;21.01;25.57;98164.75;4982505;28;1985;-73
2022/04/12 04:27:54;;;;;;;;;;;;;;;21.37;25.36;98170.44;5017605;28;1185;-73
2022/04/12 04:30:19;;;;;;;;;;;;;;;21.66;24.81;98170.59;5017851;28;968;-73
2022/04/12 04:32:45;;;;;;;;;;;;;;;21.28;25.11;98182.34;5017410;28;1235;-73
2022/04/12 04:35:10;;;;;;;;;;;;;;;21.10;25.56;98179.13;5017535;28;980;-73
2022/04/12 04:37:45;;;;;;;;;;;;;;;20.62;25.57;98114.66;5017201;28;1443;-73
2022/04/12 04:40:14;;;;;;;;;;;;;;;21.21;25.70;98191.00;5017228;28;1061;-73
2022/04/12 04:42:40;;;;;;;;;;;;;;;21.56;24.79;98182.97;5016662;28;1152;-73
2022/04/12 04:45:06;;;;;;;;;;;;;;;21.45;24.84;98188.06;5017190;28;1914;-73
2022/04/12 04:47:32;;;;;;;;;;;;;;;21.22;25.23;98192.56;4955922;29;1183;-73
2022/04/12 04:49:57;;;;;;;;;;;;;;;21.12;25.50;98187.16;4955807;29;1536;-73
2022/04/12 04:52:23;;;;;;;;;;;;;;;21.13;25.43;98186.72;4956157;29;1024;-73
2022/04/12 04:54:48;;;;;;;;;;;;;;;21.47;25.19;98186.38;4955926;29;1082;-73
2022/04/12 04:57:14;;;;;;;;;;;;;;;21.73;24.52;98192.25;4956143;29;944;-73
2022/04/12 04:59:39;;;;;;;;;;;;;;;21.72;24.47;98196.34;4955895;29;1033;-73
2022/04/12 05:02:05;;;;;;;;;;;;;;;21.43;25.14;98194.16;4956142;29;1028;-73
2022/04/12 05:04:30;;;;;;;;;;;;;;;21.33;25.26;98193.16;4955918;29;939;-73
2022/04/12 05:06:56;;;;;;;;;;;;;;;21.06;25.65;98195.38;4956004;29;1914;-73
2022/04/12 05:09:21;;;;;;;;;;;;;;;21.43;25.16;98197.00;4955677;29;996;-73
2022/04/12 05:11:47;;;;;;;;;;;;;;;21.68;24.84;98204.13;4955829;29;1063;-73
2022/04/12 05:14:12;;;;;;;;;;;;;;;21.46;24.89;98206.66;4955789;29;1098;-72
2022/04/12 05:16:38;;;;;;;;;;;;;;;21.09;25.81;98203.00;4955567;29;953;-73
2022/04/12 05:19:03;;;;;;;;;;;;;;;21.00;25.63;98202.78;4955697;29;1018;-73
2022/04/12 05:21:29;;;;;;;;;;;;;;;20.80;26.00;98211.25;4955353;29;975;-73
2022/04/12 05:23:55;;;;;;;;;;;;;;;20.79;26.26;98210.47;4959483;28;1100;-73
2022/04/12 05:26:20;;;;;;;;;;;;;;;20.65;26.08;98210.72;5016362;28;1906;-73
2022/04/12 05:28:46;;;;;;;;;;;;;;;21.37;25.17;98223.44;5016592;28;918;-73
2022/04/12 05:31:11;;;;;;;;;;;;;;;21.67;24.80;98220.31;4980884;28;999;-73
2022/04/12 05:33:37;;;;;;;;;;;;;;;21.91;24.58;98225.81;5016219;28;1004;-73
2022/04/12 05:36:02;;;;;;;;;;;;;;;21.71;24.56;98218.19;4981536;28;1037;-73
2022/04/12 05:38:28;;;;;;;;;;;;;;;21.33;25.37;98224.28;4974514;28;975;-73
2022/04/12 05:40:54;;;;;;;;;;;;;;;21.20;25.64;98229.03;4942468;28;974;-73
2022/04/12 05:43:20;;;;;;;;;;;;;;;21.07;25.48;98225.25;4974616;28;979;-73
2022/04/12 05:45:45;;;;;;;;;;;;;;;21.03;25.56;98230.16;4974504;28;1903;-74
2022/04/12 05:48:11;;;;;;;;;;;;;;;21.02;25.80;98228.59;4974448;28;1082;-73
2022/04/12 05:50:36;;;;;;;;;;;;;;;21.06;25.71;98234.97;4974450;28;1178;-74
2022/04/12 05:53:02;;;;;;;;;;;;;;;21.61;25.06;98227.75;4974273;28;1078;-73
2022/04/12 05:55:28;;;;;;;;;;;;;;;21.87;24.60;98230.78;4974481;28;962;-74
2022/04/12 05:57:55;;;;;;;;;;;;;;;21.30;25.43;98228.03;4972604;28;1469;-73
2022/04/12 06:00:20;;;;;;;;;;;;;;;21.23;25.42;98227.34;4973340;28;1922;-74
2022/04/12 06:02:46;;;;;;;;;;;;;;;20.97;25.68;98226.25;4973242;28;1495;-73
2022/04/12 06:05:13;;;;;;;;;;;;;;;21.05;25.61;98239.03;4972732;28;1914;-73
2022/04/12 06:07:39;;;;;;;;;;;;;;;20.98;25.90;98233.50;4974006;28;1197;-73
2022/04/12 06:10:05;;;;;;;;;;;;;;;21.17;25.70;98229.88;4974217;28;993;-73
2022/04/12 06:12:30;;;;;;;;;;;;;;;21.51;25.26;98237.28;4974346;28;1135;-74
2022/04/12 06:14:56;;;;;;;;;;;;;;;21.84;24.62;98233.25;4974009;28;896;-73
2022/04/12 06:17:22;;;;;;;;;;;;;;;21.38;25.18;98233.50;4957979;28;1060;-74
2022/04/12 06:19:47;;;;;;;;;;;;;;;21.04;25.54;98243.09;4974169;28;1016;-73
2022/04/12 06:22:12;;;;;;;;;;;;;;;20.90;26.13;98237.72;4982165;28;1302;-73
2022/04/12 06:24:39;;;;;;;;;;;;;;;21.07;25.89;98237.34;4983233;28;1708;-74
2022/04/12 06:27:05;;;;;;;;;;;;;;;21.56;25.15;98243.22;4983323;28;1463;-73
2022/04/12 06:29:30;;;;;;;;;;;;;;;21.71;24.78;98238.03;4981588;28;1529;-74
2022/04/12 06:31:56;;;;;;;;;;;;;;;21.37;25.29;98231.94;4981941;28;1488;-73
2022/04/12 06:34:21;;;;;;;;;;;;;;;21.25;25.52;98231.34;4983066;28;1577;-73
2022/04/12 06:36:47;;;;;;;;;;;;;;;21.05;25.76;98239.03;5010519;28;1760;-73
2022/04/12 06:39:12;;;;;;;;;;;;;;;20.91;25.94;98244.97;5025288;28;1536;-73
2022/04/12 06:41:38;;;;;;;;;;;;;;;20.85;26.26;98241.84;5023860;28;1499;-73
2022/04/12 06:44:03;;;;;;;;;;;;;;;20.89;25.90;98247.47;4992746;28;1439;-74
2022/04/12 06:46:29;;;;;;;;;;;;;;;20.91;25.81;98247.81;5029206;28;1942;-73
2022/04/12 06:48:54;;;;;;;;;;;;;;;20.98;25.89;98250.47;4987043;28;1428;-74
2022/04/12 06:51:19;;;;;;;;;;;;;;;21.59;25.11;98253.66;5028252;28;1316;-73
2022/04/12 06:53:45;;;;;;;;;;;;;;;21.67;24.84;98248.63;5028702;28;1555;-73
2022/04/12 06:56:10;;;;;;;;;;;;;;;21.56;24.74;98256.56;5027007;28;1461;-73
2022/04/12 06:58:36;;;;;;;;;;;;;;;21.13;25.66;98257.44;5028593;28;1503;-73
2022/04/12 07:01:01;;;;;;;;;;;;;;;20.90;25.81;98254.69;5027387;28;1513;-74
2022/04/12 07:03:27;;;;;;;;;;;;;;;20.97;25.89;98257.38;5027155;28;1441;-73
2022/04/12 07:05:55;;;;;;;;;;;;;;;21.00;26.05;98265.00;5028839;28;1977;-74
2022/04/12 07:08:22;;;;;;;;;;;;;;;21.10;25.84;98264.00;5017990;28;1511;-73
2022/04/12 07:10:48;;;;;;;;;;;;;;;21.54;25.23;98264.69;5018174;28;1419;-73
2022/04/12 07:13:13;;;;;;;;;;;;;;;21.71;25.00;98257.03;5017877;28;1605;-74
2022/04/12 07:15:39;;;;;;;;;;;;;;;21.47;24.75;98256.38;5017772;28;1680;-74
2022/04/12 07:18:04;;;;;;;;;;;;;;;21.33;25.12;98265.97;5017984;28;1489;-74
2022/04/12 07:20:30;;;;;;;;;;;;;;;21.07;25.58;98259.19;4995413;28;1491;-73
2022/04/12 07:22:55;;;;;;;;;;;;;;;21.05;25.75;98258.84;4995326;28;1519;-74
2022/04/12 07:25:21;;;;;;;;;;;;;;;21.49;25.25;98259.56;4995192;28;1974;-73
2022/04/12 07:27:46;;;;;;;;;;;;;;;21.68;24.57;98253.06;4995495;28;1300;-73
2022/04/12 07:30:12;;;;;;;;;;;;;;;21.32;25.30;98247.38;4995631;28;1582;-73
2022/04/12 07:32:38;;;;;;;;;;;;;;;21.12;25.54;98257.88;4995701;28;972;-73
2022/04/12 07:35:05;;;;;;;;;;;;;;;21.01;25.53;98258.91;4995792;28;974;-73
2022/04/12 07:37:31;;;;;;;;;;;;;;;21.30;25.34;98247.84;4979454;28;1039;-73
2022/04/12 07:39:56;;;;;;;;;;;;;;;21.72;24.62;98248.13;4995441;28;1059;-73
2022/04/12 07:42:23;;;;;;;;;;;;;;;21.45;24.98;98250.34;4995643;28;1185;-72
2022/04/12 07:44:48;;;;;;;;;;;;;;;21.01;25.60;98255.28;4983549;28;1981;-74
2022/04/12 07:47:14;;;;;;;;;;;;;;;21.06;25.48;98258.41;4968585;28;1533;-74
2022/04/12 07:49:39;;;;;;;;;;;;;;;21.06;25.72;98263.25;4984898;28;1538;-74
2022/04/12 07:52:05;;;;;;;;;;;;;;;21.34;25.22;98256.22;4988990;28;1680;-73
2022/04/12 07:54:31;;;;;;;;;;;;;;;21.77;24.72;98261.75;4994664;28;1011;-74
2022/04/12 07:56:56;;;;;;;;;;;;;;;21.71;24.70;98255.03;4992323;28;1644;-73
2022/04/12 07:59:21;;;;;;;;;;;;;;;21.28;25.24;98258.75;4995114;28;998;-73
2022/04/12 08:01:47;;;;;;;;;;;;;;;21.06;25.66;98260.44;4995119;28;965;-74
2022/04/12 08:04:12;;;;;;;;;;;;;;;21.17;25.29;98263.84;4995140;28;1178;-74
2022/04/12 08:06:38;;;;;;;;;;;;;;;21.66;24.79;98249.88;4995083;28;1918;-74
2022/04/12 08:09:04;;;;;;;;;;;;;;;21.88;24.51;98260.72;4995112;28;1070;-74
2022/04/12 08:11:31;;;;;;;;;;;;;;;21.65;24.71;98253.91;4995045;28;1040;-74
2022/04/12 08:13:57;;;;;;;;;;;;;;;21.31;25.19;98263.56;4995121;28;1081;-74
2022/04/12 08:16:22;;;;;;;;;;;;;;;21.16;25.25;98256.59;4996287;28;1096;-74
2022/04/12 08:18:48;;;;;;;;;;;;;;;21.33;25.42;98248.97;4997393;28;1184;-74
2022/04/12 08:21:13;;;;;;;;;;;;;;;21.62;24.74;98249.16;4997308;28;793;-74
2022/04/12 08:23:39;;;;;;;;;;;;;;;21.78;24.53;98254.06;4997394;28;958;-74
2022/04/12 08:26:04;;;;;;;;;;;;;;;21.43;25.07;98247.94;4996828;28;1906;-73
2022/04/12 08:28:30;;;;;;;;;;;;;;;21.16;25.35;98255.78;4996701;28;973;-74
2022/04/12 08:30:55;;;;;;;;;;;;;;;21.17;25.15;98252.53;4997106;28;973;-74
2022/04/12 08:33:20;;;;;;;;;;;;;;;21.11;25.47;98248.59;4997148;28;921;-74
2022/04/12 08:35:46;;;;;;;;;;;;;;;20.94;25.63;98255.44;4996848;28;1071;-74
2022/04/12 08:38:11;;;;;;;;;;;;;;;20.89;25.77;98253.91;4996970;28;1019;-74
2022/04/12 08:40:37;;;;;;;;;;;;;;;21.01;25.44;98255.28;4997125;28;1030;-74
2022/04/12 08:43:02;;;;;;;;;;;;;;;21.41;24.97;98243.97;4936317;29;960;-74
2022/04/12 08:45:28;;;;;;;;;;;;;;;21.61;24.86;98247.56;4936432;29;1906;-74
2022/04/12 08:47:53;;;;;;;;;;;;;;;21.51;24.63;98254.25;4936503;29;1039;-73
2022/04/12 08:50:19;;;;;;;;;;;;;;;21.13;25.35;98240.47;4936229;29;1392;-75
2022/04/12 08:52:45;;;;;;;;;;;;;;;21.05;25.63;98239.03;4936627;29;1001;-74
2022/04/12 08:55:11;;;;;;;;;;;;;;;21.24;25.15;98241.06;4898405;29;1098;-75
2022/04/12 08:57:37;;;;;;;;;;;;;;;21.64;24.92;98238.19;4898033;29;1233;-74
2022/04/12 09:00:03;;;;;;;;;;;;;;;21.81;24.47;98236.97;4866897;29;970;-74
2022/04/12 09:02:28;;;;;;;;;;;;;;;21.29;24.98;98236.91;4861004;29;1003;-74
2022/04/12 09:04:53;;;;;;;;;;;;;;;21.18;24.99;98230.69;4860260;29;1974;-75
2022/04/12 09:07:23;;;;;;;;;;;;;;;21.07;25.58;98231.69;4860892;29;974;-74
2022/04/12 09:09:48;;;;;;;;;;;;;;;21.52;24.56;98222.66;4860631;29;1090;-74
2022/04/12 09:12:14;;;;;;;;;;;;;;;21.71;24.49;98234.38;4860955;29;982;-74
2022/04/12 09:14:40;;;;;;;;;;;;;;;21.41;24.50;98227.00;4851612;29;991;-75
2022/04/12 09:17:06;;;;;;;;;;;;;;;20.95;25.43;98223.09;4860753;29;1132;-75
2022/04/12 09:19:43;;;;;;;;;;;;;;;20.91;25.43;98219.53;4860697;29;1014;-74
2022/04/12 09:22:10;;;;;;;;;;;;;;;21.18;25.14;98237.13;4860536;29;967;-74
2022/04/12 09:24:36;;;;;;;;;;;;;;;21.45;24.71;98228.50;4829994;29;980;-74
2022/04/12 09:27:02;;;;;;;;;;;;;;;21.70;24.42;98227.91;4892599;29;1918;-74
2022/04/12 09:29:27;;;;;;;;;;;;;;;21.52;24.43;98221.88;4897888;29;1212;-74
2022/04/12 09:31:58;;;;;;;;;;;;;;;21.13;25.05;98226.31;4897834;29;1218;-74
2022/04/12 09:34:24;;;;;;;;;;;;;;;21.02;25.02;98228.59;4931287;29;1005;-74
2022/04/12 09:36:50;;;;;;;;;;;;;;;21.10;25.04;98227.22;4935804;29;1020;-74
2022/04/12 09:39:21;;;;;;;;;;;;;;;21.46;24.79;98226.47;4903841;29;1016;-75
2022/04/12 09:41:47;;;;;;;;;;;;;;;21.77;24.00;98238.31;4935606;29;973;-74
2022/04/12 09:44:16;;;;;;;;;;;;;;;21.81;24.12;98233.31;4935694;29;1219;-73
2022/04/12 09:46:42;;;;;;;;;;;;;;;21.36;24.64;98233.16;4988788;28;1910;-73
2022/04/12 09:49:07;;;;;;;;;;;;;;;20.77;25.23;98224.22;4995637;28;963;-73
2022/04/12 09:51:36;;;;;;;;;;;;;;;20.93;25.03;98234.00;4995790;28;1070;-73
2022/04/12 09:54:02;;;;;;;;;;;;;;;20.99;25.39;98224.59;4995667;28;990;-73
2022/04/12 09:56:29;;;;;;;;;;;;;;;21.57;24.15;98227.03;4995714;28;913;-72
2022/04/12 09:58:58;;;;;;;;;;;;;;;21.73;24.17;98221.38;4934779;29;1074;-73
2022/04/12 10:01:24;;;;;;;;;;;;;;;21.34;24.33;98222.25;4935369;29;1035;-73
2022/04/12 10:03:50;;;;;;;;;;;;;;;21.07;24.84;98228.88;4916058;29;1034;-72
2022/04/12 10:06:17;;;;;;;;;;;;;;;21.06;24.90;98223.66;4916616;29;1914;-73
2022/04/12 10:08:42;;;;;;;;;;;;;;;20.97;25.24;98220.59;4916339;29;1036;-73
2022/04/12 10:11:08;;;;;;;;;;;;;;;21.52;24.52;98230.38;4916128;29;971;-74
2022/04/12 10:13:33;;;;;;;;;;;;;;;21.59;24.34;98231.00;4900523;29;985;-74
2022/04/12 10:15:59;;;;;;;;;;;;;;;21.27;24.73;98231.69;4931073;29;2042;-73
2022/04/12 10:18:24;;;;;;;;;;;;;;;21.00;24.88;98237.50;4935135;29;1025;-73
2022/04/12 10:20:50;;;;;;;;;;;;;;;20.87;25.47;98244.25;4934988;29;1188;-73
2022/04/12 10:23:19;;;;;;;;;;;;;;;20.88;25.19;98238.19;4919544;29;1038;-74
2022/04/12 10:25:51;;;;;;;;;;;;;;;20.84;25.17;98243.09;4935080;29;1919;-73
2022/04/12 10:28:16;;;;;;;;;;;;;;;21.35;24.63;98232.38;4934711;29;1038;-73
2022/04/12 10:30:42;;;;;;;;;;;;;;;21.69;24.12;98245.34;4897041;29;1014;-74
2022/04/12 10:33:08;;;;;;;;;;;;;;;21.41;24.50;98238.31;4896951;29;1105;-73
2022/04/12 10:35:42;;;;;;;;;;;;;;;21.02;24.99;98237.06;4900385;29;1081;-73
2022/04/12 10:38:11;;;;;;;;;;;;;;;21.08;25.05;98232.50;4915956;29;1236;-73
2022/04/12 10:40:36;;;;;;;;;;;;;;;21.47;24.50;98230.91;4882389;29;1006;-73
2022/04/12 10:43:02;;;;;;;;;;;;;;;21.69;24.40;98232.00;4897106;29;1288;-73
2022/04/12 10:45:30;;;;;;;;;;;;;;;21.58;24.09;98231.44;4896876;29;1971;-75
2022/04/12 10:48:01;;;;;;;;;;;;;;;21.22;24.92;98243.50;4878063;29;1020;-74
2022/04/12 10:50:26;;;;;;;;;;;;;;;21.05;24.97;98261.66;4878113;29;1189;-74
2022/04/12 10:52:52;;;;;;;;;;;;;;;20.93;25.58;98268.75;4887976;29;1032;-74
2022/04/12 10:55:22;;;;;;;;;;;;;;;20.66;25.79;98268.06;4915735;29;890;-74
2022/04/12 10:57:47;;;;;;;;;;;;;;;21.03;25.16;98258.47;4915756;29;1107;-74
2022/04/12 11:00:16;;;;;;;;;;;;;;;20.95;25.37;98262.69;4915917;29;1109;-73
2022/04/12 11:02:43;;;;;;;;;;;;;;;20.85;25.35;98252.38;4894622;29;1824;-75
2022/04/12 11:05:26;;;;;;;;;;;;;;;21.77;24.50;98247.59;4894986;29;1915;-69
2022/04/12 11:07:52;;;;;;;;;;;;;;;22.74;23.08;98248.00;4895726;29;1811;-70
2022/04/12 11:10:18;;;;;;;;;;;;;;;23.03;22.86;98245.19;4895739;29;1711;-69
2022/04/12 11:12:43;;;;;;;;;;;;;;;23.06;22.86;98235.81;4885282;29;1795;-70
2022/04/12 11:15:35;;;;;;;;;;;;;;;23.28;22.83;98241.66;4901991;29;2042;-70
2022/04/12 11:18:07;;;;;;;;;;;;;;;23.35;22.72;98247.88;4834738;29;1797;-70
2022/04/12 11:20:33;;;;;;;;;;;;;;;23.51;22.61;98243.38;4825106;29;1541;-70
2022/04/12 11:22:59;;;;;;;;;;;;;;;23.57;22.53;98241.56;4823151;29;1035;-70
2022/04/12 11:25:26;;;;;;;;;;;;;;;23.77;22.56;98227.97;4841934;29;1902;-70
2022/04/12 11:27:57;;;;;;;;;;;;;;;23.73;22.86;98238.69;4841100;29;1935;-69
2022/04/12 11:30:26;;;;;;;;;;;;;;;23.69;22.75;98228.66;4844274;29;2054;-68
2022/04/12 11:32:52;;;;;;;;;;;;;;;23.82;22.74;98240.81;4844421;29;1748;-69
2022/04/12 11:35:19;;;;;;;;;;;;;;;23.82;22.90;98235.94;4856776;29;1509;-68
2022/04/12 11:37:44;;;;;;;;;;;;;;;23.94;22.41;98242.88;4853403;29;1515;-75
2022/04/12 11:40:10;;;;;;;;;;;;;;;23.86;22.79;98245.13;4834349;29;1669;-76
2022/04/12 11:42:35;;;;;;;;;;;;;;;23.96;22.94;98253.78;4835601;29;1576;-78
2022/04/12 11:45:01;;;;;;;;;;;;;;;23.89;22.83;98255.59;4835062;29;1949;-69
2022/04/12 11:47:27;;;;;;;;;;;;;;;23.88;22.20;98239.00;4816115;29;1466;-69
2022/04/12 11:49:53;;;;;;;;;;;;;;;24.05;22.39;98242.53;4846202;29;1486;-69
2022/04/12 11:52:18;;;;;;;;;;;;;;;24.16;22.32;98231.59;4854150;29;1582;-70
2022/04/12 11:54:49;;;;;;;;;;;;;;;24.12;22.37;98220.34;4883950;29;1907;-70
2022/04/12 11:57:19;;;;;;;;;;;;;;;23.98;22.34;98208.63;4934647;29;1201;-70
2022/04/12 11:59:44;;;;;;;;;;;;;;;24.25;22.36;98206.09;4972710;28;1559;-69
2022/04/12 12:02:10;;;;;;;;;;;;;;;24.22;22.38;98207.00;4986617;28;1434;-69
2022/04/12 12:04:35;;;;;;;;;;;;;;;24.29;22.56;98194.59;4984011;28;1685;-70
2022/04/12 12:07:02;;;;;;;;;;;;;;;24.30;22.55;98199.84;4943809;29;1987;-68
2022/04/12 12:09:27;;;;;;;;;;;;;;;24.08;22.71;98185.53;4905447;29;1570;-69
2022/04/12 12:11:57;;;;;;;;;;;;;;;24.22;22.77;98189.16;4923059;29;1496;-70
2022/04/12 12:14:22;;;;;;;;;;;;;;;24.28;22.59;98176.75;4902223;29;1758;-71
2022/04/12 12:17:01;;;;;;;;;;;;;;;23.19;23.97;98177.00;4927835;29;1756;-77
2022/04/12 12:19:27;;;;;;;;;;;;;;;22.50;25.05;98171.69;4924095;29;1375;-77
2022/04/12 12:21:53;;;;;;;;;;;;;;;22.36;25.22;98161.50;4918751;29;983;-76
2022/04/12 12:24:18;;;;;;;;;;;;;;;22.16;25.77;98163.66;4934494;29;1440;-76
2022/04/12 12:26:43;;;;;;;;;;;;;;;22.19;25.58;98165.63;4937122;29;1989;-76
2022/04/12 12:29:10;;;;;;;;;;;;;;;22.03;25.76;98154.28;4937033;29;1060;-76
2022/04/12 12:31:42;;;;;;;;;;;;;;;21.89;25.85;98160.31;4934433;29;1081;-76
2022/04/12 12:34:07;;;;;;;;;;;;;;;21.74;26.37;98157.81;4880000;29;1012;-76
2022/04/12 12:36:33;;;;;;;;;;;;;;;21.84;26.22;98153.13;4880225;29;1011;-76
2022/04/12 12:38:58;;;;;;;;;;;;;;;21.77;26.31;98159.78;4879708;29;933;-76
2022/04/12 12:41:30;;;;;;;;;;;;;;;21.67;26.30;98152.34;4929336;29;976;-76
2022/04/12 12:43:56;;;;;;;;;;;;;;;21.54;26.42;98152.25;4936507;29;1053;-76
2022/04/12 12:46:25;;;;;;;;;;;;;;;21.56;26.13;98154.66;4936680;29;1915;-76
2022/04/12 12:49:10;;;;;;;;;;;;;;;21.47;26.61;98151.63;4936434;29;921;-76
2022/04/12 12:51:37;;;;;;;;;;;;;;;21.41;26.41;98157.03;4936411;29;1171;-76
2022/04/12 12:54:02;;;;;;;;;;;;;;;21.34;26.70;98162.81;4936014;29;968;-77
2022/04/12 12:56:31;;;;;;;;;;;;;;;21.22;26.57;98130.31;4936528;29;1088;-76